createdAt,value
2022-11-24T00:00:28.985Z,49.15
2022-11-24T00:01:32.189Z,47.67
2022-11-24T00:02:34.671Z,48.47
2022-11-24T00:03:37.165Z,46.63
2022-11-24T00:04:39.391Z,46.30
2022-11-24T00:05:41.573Z,47.25
2022-11-24T00:06:43.732Z,51.55
2022-11-24T00:07:45.945Z,45.72
2022-11-24T00:08:48.357Z,48.13
2022-11-24T00:09:50.715Z,48.97
2022-11-24T00:10:52.881Z,50.20
2022-11-24T00:11:55.067Z,49.58
2022-11-24T00:12:57.295Z,48.35
2022-11-24T00:14:00.522Z,47.13
2022-11-24T00:15:02.814Z,50.08
2022-11-24T00:16:13.066Z,48.92
2022-11-24T00:17:15.472Z,47.60
2022-11-24T00:18:17.623Z,50.00
2022-11-24T00:19:20.216Z,49.63
2022-11-24T00:20:22.522Z,48.42
2022-11-24T00:21:26.171Z,50.83
2022-11-24T00:22:28.509Z,52.42
2022-11-24T00:23:30.710Z,52.88
2022-11-24T00:24:33.238Z,48.15
2022-11-24T00:25:35.538Z,52.38
2022-11-24T00:26:37.797Z,50.88
2022-11-24T00:27:39.965Z,52.38
2022-11-24T00:28:43.672Z,55.00
2022-11-24T00:29:46.024Z,49.00
2022-11-24T00:30:48.228Z,51.50
2022-11-24T00:31:50.462Z,51.22
2022-11-24T00:32:53.112Z,51.17
2022-11-24T00:33:57.774Z,50.10
2022-11-24T00:35:00.248Z,53.15
2022-11-24T00:36:02.454Z,48.92
2022-11-24T00:37:04.621Z,50.30
2022-11-24T00:38:07.039Z,49.72
2022-11-24T00:39:14.237Z,50.28
2022-11-24T00:40:16.707Z,52.83
2022-11-24T00:41:18.876Z,52.70
2022-11-24T00:42:21.074Z,49.83
2022-11-24T00:43:23.262Z,51.47
2022-11-24T00:44:25.628Z,53.88
2022-11-24T00:45:28.159Z,49.65
2022-11-24T00:46:30.840Z,49.95
2022-11-24T00:47:33.345Z,53.35
2022-11-24T00:48:35.728Z,49.47
2022-11-24T00:49:37.920Z,49.47
2022-11-24T00:50:40.262Z,54.50
2022-11-24T00:51:42.471Z,54.83
2022-11-24T00:52:44.626Z,51.65
2022-11-24T00:53:47.213Z,52.03
2022-11-24T00:54:49.565Z,53.42
2022-11-24T00:55:52.318Z,54.55
2022-11-24T00:56:54.459Z,52.83
2022-11-24T00:57:56.786Z,53.67
2022-11-24T00:58:59.094Z,52.92
2022-11-24T01:00:01.716Z,54.30
2022-11-24T01:01:10.648Z,56.85
2022-11-24T01:02:12.845Z,54.78
2022-11-24T01:03:16.799Z,56.30
2022-11-24T01:04:18.935Z,57.13
2022-11-24T01:05:21.490Z,57.10
2022-11-24T01:06:27.620Z,59.97
2022-11-24T01:07:30.921Z,52.72
2022-11-24T01:08:33.458Z,57.70
2022-11-24T01:09:35.639Z,53.80
2022-11-24T01:10:38.033Z,55.65
2022-11-24T01:11:58.711Z,53.22
2022-11-24T01:13:01.327Z,52.88
2022-11-24T01:14:03.474Z,52.88
2022-11-24T01:15:06.629Z,55.38
2022-11-24T01:16:21.497Z,57.05
2022-11-24T01:17:23.700Z,57.47
2022-11-24T01:18:25.860Z,57.03
2022-11-24T01:19:28.117Z,57.08
2022-11-24T01:20:31.466Z,58.67
2022-11-24T01:21:33.718Z,57.05
2022-11-24T01:22:36.108Z,59.83
2022-11-24T01:23:38.592Z,57.95
2022-11-24T01:24:41.128Z,55.95
2022-11-24T01:25:43.525Z,58.70
2022-11-24T01:26:45.894Z,57.20
2022-11-24T01:27:48.251Z,57.10
2022-11-24T01:28:58.289Z,58.20
2022-11-24T01:30:00.656Z,60.38
2022-11-24T01:31:06.429Z,56.33
2022-11-24T01:32:08.658Z,57.80
2022-11-24T01:33:11.026Z,55.15
2022-11-24T01:34:13.486Z,54.42
2022-11-24T01:35:15.713Z,56.45
2022-11-24T01:36:18.110Z,55.25
2022-11-24T01:37:20.267Z,57.30
2022-11-24T01:38:22.631Z,55.03
2022-11-24T01:39:24.785Z,54.30
2022-11-24T01:40:26.945Z,54.53
2022-11-24T01:41:29.468Z,56.47
2022-11-24T01:42:46.231Z,57.67
2022-11-24T01:43:49.936Z,56.25
2022-11-24T01:45:31.021Z,58.78
2022-11-24T01:46:46.172Z,55.55
2022-11-24T01:47:48.399Z,56.42
2022-11-24T01:49:18.001Z,55.90
2022-11-24T01:50:20.534Z,54.38
2022-11-24T01:51:26.821Z,54.63
2022-11-24T01:52:37.292Z,57.33
2022-11-24T01:53:44.104Z,58.20
2022-11-24T01:54:53.486Z,58.90
2022-11-24T01:55:55.883Z,57.67
2022-11-24T01:57:04.134Z,57.17
2022-11-24T01:58:14.004Z,59.75
2022-11-24T01:59:18.402Z,60.37
2022-11-24T02:00:20.862Z,61.00
2022-11-24T02:01:23.392Z,59.40
2022-11-24T02:02:29.513Z,60.13
2022-11-24T02:03:37.316Z,54.13
2022-11-24T02:04:40.655Z,56.38
2022-11-24T02:06:00.590Z,54.80
2022-11-24T02:07:05.631Z,54.90
2022-11-24T02:08:16.693Z,56.33
2022-11-24T02:09:21.514Z,57.17
2022-11-24T02:10:23.943Z,54.17
2022-11-24T02:11:28.854Z,56.47
2022-11-24T02:12:32.248Z,57.90
2022-11-24T02:13:37.947Z,58.95
2022-11-24T02:14:41.955Z,58.70
2022-11-24T02:15:44.208Z,57.75
2022-11-24T02:16:50.132Z,54.50
2022-11-24T02:17:52.323Z,56.72
2022-11-24T02:18:54.757Z,57.33
2022-11-24T02:20:04.192Z,58.63
2022-11-24T02:21:07.254Z,57.80
2022-11-24T02:22:37.747Z,57.40
2022-11-24T02:23:49.910Z,58.97
2022-11-24T02:25:36.472Z,59.60
2022-11-24T02:26:41.640Z,52.58
2022-11-24T02:27:50.715Z,57.70
2022-11-24T02:28:56.316Z,55.95
2022-11-24T02:29:59.289Z,55.83
2022-11-24T02:31:02.449Z,59.83
2022-11-24T02:32:07.422Z,54.53
2022-11-24T02:33:12.138Z,55.28
2022-11-24T02:34:14.571Z,59.63
2022-11-24T02:35:17.464Z,56.10
2022-11-24T02:36:19.608Z,56.92
2022-11-24T02:37:21.755Z,56.35
2022-11-24T02:38:35.075Z,56.72
2022-11-24T02:39:37.394Z,57.05
2022-11-24T02:40:43.452Z,56.47
2022-11-24T02:41:53.741Z,55.10
2022-11-24T02:43:05.951Z,57.25
2022-11-24T02:44:08.226Z,60.42
2022-11-24T02:45:11.881Z,55.40
2022-11-24T02:46:14.399Z,55.17
2022-11-24T02:47:17.017Z,56.53
2022-11-24T02:48:19.586Z,55.42
2022-11-24T02:49:21.755Z,56.25
2022-11-24T02:50:24.076Z,62.65
2022-11-24T02:51:29.599Z,59.33
2022-11-24T02:52:31.764Z,56.13
2022-11-24T02:53:34.213Z,56.63
2022-11-24T02:54:36.657Z,55.05
2022-11-24T02:55:39.100Z,55.63
2022-11-24T02:56:41.540Z,53.67
2022-11-24T02:57:43.693Z,55.45
2022-11-24T02:58:46.343Z,53.95
2022-11-24T02:59:48.551Z,53.63
2022-11-24T03:00:54.195Z,55.03
2022-11-24T03:01:56.383Z,55.40
2022-11-24T03:02:58.729Z,55.30
2022-11-24T03:04:01.318Z,56.40
2022-11-24T03:05:03.794Z,55.45
2022-11-24T03:06:06.205Z,56.67
2022-11-24T03:07:08.424Z,51.42
2022-11-24T03:08:10.874Z,57.20
2022-11-24T03:09:13.075Z,54.90
2022-11-24T03:10:15.982Z,58.45
2022-11-24T03:11:18.195Z,54.95
2022-11-24T03:12:20.688Z,53.58
2022-11-24T03:13:23.262Z,55.72
2022-11-24T03:14:25.637Z,58.20
2022-11-24T03:15:27.886Z,54.35
2022-11-24T03:16:30.057Z,54.50
2022-11-24T03:17:32.240Z,53.67
2022-11-24T03:18:34.404Z,52.70
2022-11-24T03:19:36.612Z,56.38
2022-11-24T03:20:38.780Z,54.92
2022-11-24T03:21:40.948Z,53.85
2022-11-24T03:22:43.148Z,52.92
2022-11-24T03:23:45.906Z,52.60
2022-11-24T03:24:48.305Z,56.03
2022-11-24T03:25:50.653Z,59.28
2022-11-24T03:26:52.852Z,56.05
2022-11-24T03:27:57.070Z,54.60
2022-11-24T03:28:59.232Z,54.30
2022-11-24T03:30:01.646Z,55.28
2022-11-24T03:31:04.330Z,53.92
2022-11-24T03:32:06.627Z,55.50
2022-11-24T03:33:08.981Z,54.25
2022-11-24T03:34:11.193Z,52.67
2022-11-24T03:35:13.390Z,52.35
2022-11-24T03:36:16.932Z,53.53
2022-11-24T03:37:19.224Z,54.45
2022-11-24T03:38:21.624Z,53.45
2022-11-24T03:39:23.777Z,54.78
2022-11-24T03:40:25.969Z,55.60
2022-11-24T03:41:28.358Z,54.60
2022-11-24T03:42:30.518Z,53.30
2022-11-24T03:43:32.876Z,54.03
2022-11-24T03:44:35.251Z,50.85
2022-11-24T03:45:45.821Z,53.22
2022-11-24T03:47:52.299Z,53.33
2022-11-24T03:48:54.472Z,55.67
2022-11-24T03:49:56.637Z,54.88
2022-11-24T03:51:01.249Z,56.65
2022-11-24T03:52:07.769Z,53.75
2022-11-24T03:53:10.871Z,55.97
2022-11-24T03:54:13.071Z,53.95
2022-11-24T03:55:15.419Z,53.55
2022-11-24T03:56:17.572Z,54.75
2022-11-24T03:57:19.743Z,58.13
2022-11-24T03:58:21.951Z,55.38
2022-11-24T03:59:24.165Z,55.13
2022-11-24T04:00:26.428Z,53.83
2022-11-24T04:01:29.149Z,54.05
2022-11-24T04:02:31.368Z,53.53
2022-11-24T04:03:33.603Z,53.15
2022-11-24T04:04:36.149Z,53.63
2022-11-24T04:05:38.374Z,53.50
2022-11-24T04:06:41.143Z,54.30
2022-11-24T04:07:43.376Z,55.63
2022-11-24T04:08:45.592Z,54.55
2022-11-24T04:09:48.018Z,53.92
2022-11-24T04:10:52.095Z,54.58
2022-11-24T04:12:13.367Z,51.30
2022-11-24T04:13:17.541Z,54.35
2022-11-24T04:14:20.895Z,54.95
2022-11-24T04:15:23.085Z,60.88
2022-11-24T04:16:25.529Z,54.00
2022-11-24T04:17:28.769Z,52.30
2022-11-24T04:18:31.269Z,51.38
2022-11-24T04:19:33.633Z,52.70
2022-11-24T04:20:35.894Z,49.47
2022-11-24T04:21:38.052Z,53.60
2022-11-24T04:22:40.845Z,50.15
2022-11-24T04:23:43.008Z,54.17
2022-11-24T04:24:45.388Z,54.30
2022-11-24T04:25:47.698Z,52.08
2022-11-24T04:26:49.888Z,52.63
2022-11-24T04:27:54.159Z,56.08
2022-11-24T04:28:56.347Z,52.60
2022-11-24T04:29:58.541Z,53.47
2022-11-24T04:31:04.871Z,54.45
2022-11-24T04:32:07.095Z,54.38
2022-11-24T04:33:09.294Z,52.97
2022-11-24T04:34:11.695Z,52.28
2022-11-24T04:35:14.306Z,51.80
2022-11-24T04:36:16.730Z,52.15
2022-11-24T04:37:19.114Z,53.60
2022-11-24T04:39:24.246Z,54.90
2022-11-24T04:39:44.858Z,52.00
2022-11-24T04:40:47.389Z,55.50
2022-11-24T04:41:49.743Z,52.25
2022-11-24T04:42:54.241Z,60.05
2022-11-24T04:43:56.496Z,56.53
2022-11-24T04:44:58.749Z,55.47
2022-11-24T04:46:01.693Z,56.88
2022-11-24T04:47:04.391Z,56.20
2022-11-24T04:48:06.592Z,59.55
2022-11-24T04:49:11.683Z,57.65
2022-11-24T04:50:14.089Z,55.60
2022-11-24T04:51:16.326Z,56.00
2022-11-24T04:52:20.576Z,60.00
2022-11-24T04:53:22.942Z,59.63
2022-11-24T04:54:25.158Z,58.38
2022-11-24T04:55:27.633Z,57.42
2022-11-24T04:56:29.816Z,67.88
2022-11-24T04:57:33.228Z,62.30
2022-11-24T04:58:35.890Z,64.30
2022-11-24T04:59:38.077Z,65.28
2022-11-24T05:00:41.217Z,58.97
2022-11-24T05:01:44.851Z,71.63
2022-11-24T05:02:47.444Z,65.18
2022-11-24T05:03:49.667Z,69.00
2022-11-24T05:04:51.903Z,59.55
2022-11-24T05:05:54.283Z,74.15
2022-11-24T05:06:56.505Z,68.75
2022-11-24T05:07:59.945Z,71.57
2022-11-24T05:09:02.171Z,67.60
2022-11-24T05:10:22.950Z,63.92
2022-11-24T05:12:31.199Z,57.00
2022-11-24T05:13:34.078Z,62.60
2022-11-24T05:14:39.435Z,61.28
2022-11-24T05:15:42.453Z,64.72
2022-11-24T05:16:44.993Z,65.90
2022-11-24T05:17:47.258Z,67.80
2022-11-24T05:18:49.806Z,57.63
2022-11-24T05:19:51.976Z,60.65
2022-11-24T05:20:54.175Z,62.90
2022-11-24T05:21:58.022Z,63.25
2022-11-24T05:23:05.196Z,54.50
2022-11-24T05:24:07.657Z,53.67
2022-11-24T05:25:10.328Z,58.67
2022-11-24T05:26:12.752Z,54.33
2022-11-24T05:27:15.142Z,55.40
2022-11-24T05:28:18.491Z,52.95
2022-11-24T05:29:20.834Z,57.25
2022-11-24T05:30:23.025Z,54.38
2022-11-24T05:31:25.241Z,57.65
2022-11-24T05:32:27.404Z,52.03
2022-11-24T05:33:33.221Z,54.63
2022-11-24T05:34:35.715Z,48.17
2022-11-24T05:35:38.198Z,53.67
2022-11-24T05:36:52.893Z,51.53
2022-11-24T05:37:55.209Z,48.83
2022-11-24T05:38:57.793Z,60.95
2022-11-24T05:39:59.974Z,61.92
2022-11-24T05:41:04.342Z,47.85
2022-11-24T05:42:26.546Z,59.42
2022-11-24T05:43:29.211Z,61.35
2022-11-24T05:44:32.103Z,63.42
2022-11-24T05:45:34.574Z,57.72
2022-11-24T05:46:37.035Z,62.15
2022-11-24T05:47:40.635Z,57.03
2022-11-24T05:48:42.806Z,52.67
2022-11-24T05:49:45.444Z,52.65
2022-11-24T05:50:54.645Z,58.38
2022-11-24T05:51:56.835Z,46.80
2022-11-24T05:53:09.452Z,54.22
2022-11-24T05:54:11.800Z,51.25
2022-11-24T05:55:15.330Z,51.20
2022-11-24T05:56:17.523Z,52.42
2022-11-24T05:57:19.753Z,52.58
2022-11-24T05:58:21.928Z,60.03
2022-11-24T05:59:24.351Z,50.58
2022-11-24T06:00:27.262Z,55.50
2022-11-24T06:01:29.500Z,51.20
2022-11-24T06:02:32.237Z,46.42
2022-11-24T06:03:34.683Z,57.17
2022-11-24T06:04:37.599Z,48.47
2022-11-24T06:05:40.199Z,49.45
2022-11-24T06:06:42.429Z,55.70
2022-11-24T06:07:44.969Z,44.80
2022-11-24T06:08:47.427Z,56.03
2022-11-24T06:09:49.790Z,47.15
2022-11-24T06:10:51.943Z,46.50
2022-11-24T06:11:54.344Z,46.55
2022-11-24T06:12:57.011Z,47.90
2022-11-24T06:13:59.237Z,45.70
2022-11-24T06:15:01.986Z,46.20
2022-11-24T06:16:04.445Z,44.90
2022-11-24T06:17:07.131Z,44.35
2022-11-24T06:18:09.372Z,42.75
2022-11-24T06:19:11.868Z,55.90
2022-11-24T06:20:14.208Z,41.17
2022-11-24T06:21:17.292Z,45.78
2022-11-24T06:22:19.822Z,41.75
2022-11-24T06:23:21.991Z,43.40
2022-11-24T06:24:24.442Z,42.28
2022-11-24T06:25:27.628Z,41.28
2022-11-24T06:26:29.821Z,44.55
2022-11-24T06:27:32.386Z,41.97
2022-11-24T06:28:34.897Z,45.72
2022-11-24T06:29:37.095Z,48.03
2022-11-24T06:30:39.464Z,50.20
2022-11-24T06:31:41.796Z,41.92
2022-11-24T06:32:49.448Z,39.83
2022-11-24T06:33:54.332Z,53.30
2022-11-24T06:34:56.520Z,40.83
2022-11-24T06:36:01.899Z,42.50
2022-11-24T06:37:04.113Z,42.35
2022-11-24T06:38:09.089Z,38.10
2022-11-24T06:39:11.560Z,41.25
2022-11-24T06:40:13.984Z,48.60
2022-11-24T06:41:16.972Z,46.92
2022-11-24T06:42:19.330Z,43.72
2022-11-24T06:43:23.263Z,50.08
2022-11-24T06:44:25.476Z,46.00
2022-11-24T06:45:27.960Z,52.13
2022-11-24T06:46:31.576Z,59.60
2022-11-24T06:47:33.801Z,49.72
2022-11-24T06:48:36.371Z,48.88
2022-11-24T06:49:38.562Z,43.60
2022-11-24T06:50:40.937Z,50.83
2022-11-24T06:51:43.234Z,54.22
2022-11-24T06:52:45.408Z,53.13
2022-11-24T06:53:47.787Z,47.60
2022-11-24T06:54:49.950Z,48.53
2022-11-24T06:55:53.218Z,44.33
2022-11-24T06:56:59.553Z,48.95
2022-11-24T06:58:01.723Z,41.13
2022-11-24T06:59:04.225Z,44.33
2022-11-24T07:00:07.946Z,42.25
2022-11-24T07:01:14.245Z,45.95
2022-11-24T07:02:16.485Z,46.63
2022-11-24T07:03:19.611Z,41.80
2022-11-24T07:04:21.877Z,42.30
2022-11-24T07:05:24.286Z,42.15
2022-11-24T07:06:28.632Z,43.05
2022-11-24T07:07:30.896Z,42.92
2022-11-24T07:08:33.307Z,39.70
2022-11-24T07:09:35.486Z,45.75
2022-11-24T07:10:37.905Z,62.72
2022-11-24T07:11:41.219Z,41.47
2022-11-24T07:12:43.465Z,42.30
2022-11-24T07:13:46.479Z,46.78
2022-11-24T07:14:48.700Z,41.70
2022-11-24T07:15:51.010Z,41.15
2022-11-24T07:16:53.661Z,37.25
2022-11-24T07:17:56.115Z,37.40
2022-11-24T07:18:58.606Z,35.78
2022-11-24T07:20:00.794Z,37.78
2022-11-24T07:21:05.878Z,38.10
2022-11-24T07:22:08.202Z,34.65
2022-11-24T07:23:10.494Z,37.25
2022-11-24T07:24:12.947Z,37.63
2022-11-24T07:25:15.259Z,37.17
2022-11-24T07:26:18.462Z,39.63
2022-11-24T07:27:20.668Z,38.10
2022-11-24T07:28:22.904Z,36.03
2022-11-24T07:29:25.113Z,35.40
2022-11-24T07:30:28.550Z,35.60
2022-11-24T07:31:31.044Z,36.05
2022-11-24T07:32:33.654Z,37.35
2022-11-24T07:33:36.774Z,36.03
2022-11-24T07:34:38.942Z,32.97
2022-11-24T07:35:41.508Z,34.67
2022-11-24T07:36:45.304Z,32.92
2022-11-24T07:37:47.519Z,35.92
2022-11-24T07:38:50.395Z,32.45
2022-11-24T07:39:52.570Z,33.17
2022-11-24T07:40:55.062Z,32.30
2022-11-24T07:41:59.461Z,33.20
2022-11-24T07:43:01.767Z,32.97
2022-11-24T07:44:05.929Z,34.53
2022-11-24T07:45:08.449Z,35.15
2022-11-24T07:46:13.404Z,34.65
2022-11-24T07:47:16.097Z,33.78
2022-11-24T07:48:18.295Z,34.05
2022-11-24T07:49:20.552Z,32.42
2022-11-24T07:50:22.760Z,32.42
2022-11-24T07:51:24.955Z,32.35
2022-11-24T07:52:27.771Z,33.72
2022-11-24T07:53:30.792Z,34.17
2022-11-24T07:54:33.428Z,31.60
2022-11-24T07:55:36.011Z,32.85
2022-11-24T07:56:38.155Z,32.28
2022-11-24T07:57:41.240Z,33.50
2022-11-24T07:58:45.949Z,33.92
2022-11-24T07:59:50.577Z,33.53
2022-11-24T08:00:53.096Z,33.88
2022-11-24T08:01:55.266Z,33.28
2022-11-24T08:02:57.849Z,34.13
2022-11-24T08:04:01.778Z,32.80
2022-11-24T08:05:04.316Z,33.70
2022-11-24T08:06:24.096Z,30.67
2022-11-24T08:07:29.254Z,32.25
2022-11-24T08:08:34.353Z,34.28
2022-11-24T08:09:36.570Z,32.13
2022-11-24T08:10:38.714Z,33.88
2022-11-24T08:11:41.529Z,31.27
2022-11-24T08:12:44.003Z,31.83
2022-11-24T08:13:46.501Z,30.05
2022-11-24T08:14:50.364Z,31.42
2022-11-24T08:15:52.708Z,29.70
2022-11-24T08:16:55.209Z,30.65
2022-11-24T08:18:01.390Z,30.48
2022-11-24T08:19:03.570Z,31.08
2022-11-24T08:20:06.654Z,29.65
2022-11-24T08:21:13.165Z,30.83
2022-11-24T08:22:15.579Z,29.70
2022-11-24T08:23:17.792Z,28.88
2022-11-24T08:24:20.003Z,30.42
2022-11-24T08:25:25.143Z,30.58
2022-11-24T08:26:28.293Z,30.83
2022-11-24T08:27:30.953Z,31.35
2022-11-24T08:28:33.306Z,30.40
2022-11-24T08:29:35.523Z,33.17
2022-11-24T08:30:37.743Z,31.75
2022-11-24T08:31:40.013Z,30.95
2022-11-24T08:32:42.639Z,30.70
2022-11-24T08:33:44.880Z,30.17
2022-11-24T08:34:47.074Z,31.42
2022-11-24T08:35:49.462Z,31.58
2022-11-24T08:36:52.348Z,30.92
2022-11-24T08:37:57.291Z,29.52
2022-11-24T08:39:03.448Z,29.65
2022-11-24T08:40:06.276Z,30.15
2022-11-24T08:41:10.924Z,31.50
2022-11-24T08:42:13.106Z,29.75
2022-11-24T08:43:15.461Z,30.58
2022-11-24T08:44:18.352Z,30.00
2022-11-24T08:45:22.446Z,29.63
2022-11-24T08:46:25.491Z,28.27
2022-11-24T08:47:27.924Z,30.80
2022-11-24T08:48:30.948Z,31.17
2022-11-24T08:49:33.125Z,31.55
2022-11-24T08:50:37.485Z,29.95
2022-11-24T08:51:39.694Z,30.08
2022-11-24T08:52:42.430Z,34.13
2022-11-24T08:53:44.819Z,31.73
2022-11-24T08:54:47.494Z,31.20
2022-11-24T08:55:50.092Z,30.40
2022-11-24T08:56:52.472Z,27.55
2022-11-24T08:57:54.705Z,29.40
2022-11-24T08:58:57.698Z,27.98
2022-11-24T08:59:59.906Z,27.77
2022-11-24T09:01:14.164Z,27.60
2022-11-24T09:02:16.480Z,27.98
2022-11-24T09:03:19.058Z,27.77
2022-11-24T09:04:21.243Z,26.77
2022-11-24T09:05:51.231Z,27.67
2022-11-24T09:06:49.827Z,28.13
2022-11-24T09:07:52.096Z,29.10
2022-11-24T09:08:55.005Z,27.33
2022-11-24T09:09:57.231Z,28.00
2022-11-24T09:11:04.423Z,29.05
2022-11-24T09:12:14.348Z,25.38
2022-11-24T09:13:17.059Z,26.15
2022-11-24T09:14:19.421Z,26.88
2022-11-24T09:15:21.900Z,27.25
2022-11-24T09:16:27.207Z,25.73
2022-11-24T09:17:29.729Z,25.30
2022-11-24T09:18:31.918Z,24.48
2022-11-24T09:19:34.642Z,25.35
2022-11-24T09:20:37.002Z,26.83
2022-11-24T09:21:39.263Z,24.35
2022-11-24T09:22:43.054Z,24.65
2022-11-24T09:23:47.445Z,24.00
2022-11-24T09:24:49.697Z,22.42
2022-11-24T09:25:51.849Z,24.52
2022-11-24T09:26:55.479Z,23.90
2022-11-24T09:27:59.909Z,26.83
2022-11-24T09:29:05.459Z,25.73
2022-11-24T09:30:08.446Z,25.23
2022-11-24T09:31:12.876Z,22.40
2022-11-24T09:32:15.204Z,21.52
2022-11-24T09:33:17.568Z,22.38
2022-11-24T09:34:19.957Z,21.52
2022-11-24T09:35:22.220Z,21.50
2022-11-24T09:36:24.784Z,22.13
2022-11-24T09:37:32.437Z,21.40
2022-11-24T09:38:35.558Z,21.25
2022-11-24T09:39:37.775Z,21.45
2022-11-24T09:40:39.946Z,19.92
2022-11-24T09:41:54.046Z,18.98
2022-11-24T09:43:06.895Z,16.95
2022-11-24T09:44:33.324Z,18.35
2022-11-24T09:48:22.819Z,17.13
2022-11-24T09:49:37.114Z,17.65
2022-11-24T09:50:39.777Z,18.40
2022-11-24T09:51:47.052Z,18.17
2022-11-24T09:53:26.917Z,16.90
2022-11-24T09:54:30.978Z,17.08
2022-11-24T09:55:33.167Z,17.48
2022-11-24T09:56:40.578Z,16.98
2022-11-24T09:57:43.940Z,15.43
2022-11-24T09:58:50.683Z,15.80
2022-11-24T09:59:55.667Z,16.35
2022-11-24T10:00:58.686Z,16.55
2022-11-24T10:02:03.392Z,17.58
2022-11-24T10:03:07.153Z,19.98
2022-11-24T10:04:39.911Z,18.00
2022-11-24T10:05:43.273Z,16.20
2022-11-24T10:06:55.380Z,17.15
2022-11-24T10:08:20.061Z,15.68
2022-11-24T10:09:55.081Z,15.40
2022-11-24T10:10:59.848Z,14.77
2022-11-24T10:12:19.961Z,15.30
2022-11-24T10:13:46.737Z,15.75
2022-11-24T10:15:25.486Z,16.67
2022-11-24T10:16:46.068Z,17.10
2022-11-24T10:18:07.683Z,14.57
2022-11-24T10:19:37.458Z,15.00
2022-11-24T10:21:09.631Z,15.75
2022-11-24T10:22:14.668Z,14.40
2022-11-24T10:23:42.235Z,14.93
2022-11-24T10:25:19.150Z,13.77
2022-11-24T10:26:46.927Z,13.98
2022-11-24T10:27:56.211Z,15.68
2022-11-24T10:28:58.386Z,15.93
2022-11-24T10:30:01.482Z,16.95
2022-11-24T10:31:24.443Z,15.90
2022-11-24T10:32:29.838Z,16.20
2022-11-24T10:33:32.301Z,16.55
2022-11-24T10:34:40.128Z,17.80
2022-11-24T10:36:07.787Z,16.30
2022-11-24T10:37:40.618Z,17.15
2022-11-24T10:38:52.778Z,17.17
2022-11-24T10:40:05.260Z,16.00
2022-11-24T10:41:13.310Z,16.02
2022-11-24T10:42:26.073Z,15.40
2022-11-24T10:43:28.838Z,16.25
2022-11-24T10:44:31.235Z,16.02
2022-11-24T10:45:33.503Z,14.60
2022-11-24T10:46:39.484Z,16.05
2022-11-24T10:47:43.310Z,18.80
2022-11-24T10:48:52.639Z,16.27
2022-11-24T10:50:13.150Z,17.77
2022-11-24T10:51:27.584Z,16.13
2022-11-24T10:52:36.715Z,14.27
2022-11-24T10:53:41.415Z,15.50
2022-11-24T10:55:01.320Z,14.82
2022-11-24T10:56:05.343Z,13.85
2022-11-24T10:57:08.249Z,15.10
2022-11-24T10:58:17.429Z,14.40
2022-11-24T10:59:26.019Z,14.05
2022-11-24T11:00:33.531Z,15.35
2022-11-24T11:01:35.897Z,14.18
2022-11-24T11:02:39.972Z,14.48
2022-11-24T11:03:53.874Z,15.05
2022-11-24T11:04:56.300Z,13.73
2022-11-24T11:06:11.796Z,13.55
2022-11-24T11:07:21.567Z,14.43
2022-11-24T11:08:29.510Z,13.50
2022-11-24T11:09:31.784Z,15.23
2022-11-24T11:10:34.323Z,13.95
2022-11-24T11:11:39.904Z,14.52
2022-11-24T11:12:44.650Z,15.90
2022-11-24T11:14:09.546Z,15.85
2022-11-24T11:15:30.816Z,14.32
2022-11-24T11:16:40.291Z,14.65
2022-11-24T11:17:44.260Z,13.80
2022-11-24T11:18:49.513Z,14.93
2022-11-24T11:19:58.454Z,13.88
2022-11-24T11:21:05.523Z,15.23
2022-11-24T11:22:31.030Z,15.65
2022-11-24T11:23:36.072Z,14.45
2022-11-24T11:24:40.625Z,13.88
2022-11-24T11:25:43.771Z,14.52
2022-11-24T11:26:46.212Z,13.43
2022-11-24T11:27:48.900Z,13.98
2022-11-24T11:34:57.609Z,13.38
2022-11-24T11:36:10.807Z,13.35
2022-11-24T11:37:15.373Z,13.85
2022-11-24T11:38:18.870Z,13.73
2022-11-24T11:39:29.867Z,12.93
2022-11-24T11:40:32.396Z,12.65
2022-11-24T11:41:40.341Z,13.75
2022-11-24T11:43:03.910Z,15.02
2022-11-24T11:44:29.501Z,15.48
2022-11-24T11:45:45.178Z,15.35
2022-11-24T11:46:47.588Z,13.82
2022-11-24T11:47:52.737Z,15.00
2022-11-24T11:48:55.121Z,14.20
2022-11-24T11:49:57.747Z,13.73
2022-11-24T11:51:32.194Z,13.13
2022-11-24T11:52:52.749Z,13.13
2022-11-24T11:54:22.294Z,12.45
2022-11-24T11:55:37.081Z,12.77
2022-11-24T11:56:52.966Z,12.52
2022-11-24T11:58:14.132Z,13.18
2022-11-24T11:59:31.637Z,12.43
2022-11-24T12:00:39.679Z,12.70
2022-11-24T12:01:49.825Z,13.05
2022-11-24T12:03:24.122Z,13.30
2022-11-24T12:04:44.756Z,13.52
2022-11-24T12:05:52.629Z,13.00
2022-11-24T12:07:02.291Z,12.23
2022-11-24T12:08:24.553Z,13.30
2022-11-24T12:09:36.271Z,11.93
2022-11-24T12:11:02.937Z,13.02
2022-11-24T12:12:26.200Z,13.57
2022-11-24T12:13:43.528Z,14.07
2022-11-24T12:15:11.354Z,19.77
2022-11-24T12:16:27.803Z,21.65
2022-11-24T12:17:41.711Z,24.73
2022-11-24T12:19:01.005Z,23.33
2022-11-24T12:20:41.650Z,23.45
2022-11-24T12:22:09.388Z,26.70
2022-11-24T12:23:40.716Z,24.92
2022-11-24T12:24:53.123Z,24.80
2022-11-24T12:26:06.142Z,25.90
2022-11-24T12:27:23.272Z,25.33
2022-11-24T12:28:46.719Z,24.85
2022-11-24T12:30:03.991Z,25.35
2022-11-24T12:31:08.211Z,26.20
2022-11-24T12:32:34.670Z,25.02
2022-11-24T12:33:50.960Z,25.88
2022-11-24T12:35:03.512Z,25.20
2022-11-24T12:36:21.207Z,25.58
2022-11-24T12:37:45.627Z,25.30
2022-11-24T12:38:56.641Z,26.27
2022-11-24T12:40:14.758Z,26.23
2022-11-24T12:42:55.095Z,27.00
2022-11-24T12:44:00.041Z,26.15
2022-11-24T12:45:48.476Z,26.38
2022-11-24T12:47:01.077Z,26.45
2022-11-24T12:48:28.703Z,25.23
2022-11-24T12:49:38.564Z,24.52
2022-11-24T12:50:43.829Z,22.50
2022-11-24T12:51:53.200Z,22.23
2022-11-24T12:53:04.656Z,23.30
2022-11-24T12:54:13.984Z,23.35
2022-11-24T12:55:23.110Z,21.95
2022-11-24T12:56:56.140Z,24.33
2022-11-24T12:58:09.337Z,21.05
2022-11-24T12:59:16.501Z,19.73
2022-11-24T13:00:26.281Z,20.90
2022-11-24T13:01:33.793Z,21.67
2022-11-24T13:02:57.293Z,22.23
2022-11-24T13:04:36.032Z,21.60
2022-11-24T13:05:52.471Z,19.88
2022-11-24T13:07:02.395Z,20.08
2022-11-24T13:08:05.935Z,21.27
2022-11-24T13:09:10.479Z,20.92
2022-11-24T13:10:55.273Z,21.35
2022-11-24T13:11:49.953Z,21.05
2022-11-24T13:13:12.153Z,20.88
2022-11-24T13:14:37.284Z,20.38
2022-11-24T13:17:38.318Z,18.55
2022-11-24T13:18:57.282Z,20.05
2022-11-24T13:20:21.323Z,21.45
2022-11-24T13:21:30.851Z,18.95
2022-11-24T13:22:33.076Z,20.10
2022-11-24T13:23:36.862Z,18.20
2022-11-24T13:24:40.057Z,16.92
2022-11-24T13:26:15.322Z,19.13
2022-11-24T13:27:21.978Z,15.48
2022-11-24T13:29:13.441Z,15.25
2022-11-24T13:30:35.408Z,14.93
2022-11-24T13:31:37.712Z,15.82
2022-11-24T13:32:39.907Z,15.82
2022-11-24T13:33:42.165Z,15.38
2022-11-24T13:34:45.652Z,15.07
2022-11-24T13:36:03.081Z,15.48
2022-11-24T13:37:28.881Z,14.93
2022-11-24T13:38:52.455Z,15.10
2022-11-24T13:40:02.494Z,15.02
2022-11-24T13:41:27.751Z,15.18
2022-11-24T13:42:54.813Z,14.93
2022-11-24T13:44:15.130Z,14.98
2022-11-24T13:45:38.805Z,15.73
2022-11-24T13:47:05.722Z,14.52
2022-11-24T13:48:20.534Z,15.95
2022-11-24T13:49:24.104Z,14.63
2022-11-24T13:50:50.975Z,14.68
2022-11-24T13:51:57.040Z,13.70
2022-11-24T13:53:15.608Z,14.65
2022-11-24T13:54:18.124Z,14.23
2022-11-24T13:55:24.932Z,14.95
2022-11-24T13:56:29.759Z,14.77
2022-11-24T13:57:36.378Z,14.93
2022-11-24T13:58:49.590Z,14.93
2022-11-24T14:00:00.168Z,15.50
2022-11-24T14:01:20.641Z,14.52
2022-11-24T14:02:23.982Z,14.05
2022-11-24T14:03:30.386Z,15.25
2022-11-24T14:04:33.684Z,14.63
2022-11-24T14:05:39.161Z,14.05
2022-11-24T14:06:53.379Z,14.07
2022-11-24T14:07:56.319Z,14.70
2022-11-24T14:09:01.397Z,15.23
2022-11-24T14:10:03.842Z,13.65
2022-11-24T14:11:15.239Z,14.02
2022-11-24T14:12:25.215Z,13.60
2022-11-24T14:13:33.420Z,12.13
2022-11-24T14:14:35.720Z,12.48
2022-11-24T14:15:38.120Z,13.70
2022-11-24T14:16:40.517Z,13.40
2022-11-24T14:17:42.813Z,13.23
2022-11-24T14:18:48.976Z,13.50
2022-11-24T14:19:53.664Z,13.88
2022-11-24T14:20:56.878Z,13.13
2022-11-24T14:21:59.322Z,13.02
2022-11-24T14:23:01.948Z,12.82
2022-11-24T14:24:18.844Z,13.30
2022-11-24T14:25:31.985Z,12.77
2022-11-24T14:26:37.096Z,13.38
2022-11-24T14:27:40.078Z,13.00
2022-11-24T14:28:45.592Z,13.55
2022-11-24T14:29:59.055Z,11.93
2022-11-24T14:31:09.463Z,12.75